createdAt,value
2022-12-31T00:02:18.592Z,98014.56
2022-12-31T00:05:25.946Z,98016.28
2022-12-31T00:08:34.692Z,98022.84
2022-12-31T00:11:42.456Z,98032.56
2022-12-31T00:14:48.668Z,98023.63
2022-12-31T00:17:55.732Z,98020.34
2022-12-31T00:21:02.289Z,98022.81
2022-12-31T00:24:15.147Z,98013.16
2022-12-31T00:27:22.593Z,98017.03
2022-12-31T00:30:29.615Z,98018.00
2022-12-31T00:33:35.717Z,98031.28
2022-12-31T00:36:46.221Z,98036.53
2022-12-31T00:39:55.210Z,98039.88
2022-12-31T00:43:02.070Z,98057.09
2022-12-31T00:46:10.293Z,98049.75
2022-12-31T00:49:17.274Z,98050.84
2022-12-31T00:52:23.532Z,98054.81
2022-12-31T00:55:34.539Z,98041.00
2022-12-31T00:58:41.099Z,98049.78
2022-12-31T01:01:48.099Z,98024.06
2022-12-31T01:04:54.659Z,98043.19
2022-12-31T01:08:01.804Z,98055.28
2022-12-31T01:11:23.183Z,98053.19
2022-12-31T01:14:32.863Z,98063.59
2022-12-31T01:17:38.895Z,98059.00
2022-12-31T01:20:47.639Z,98054.84
2022-12-31T01:23:54.181Z,98050.69
2022-12-31T01:27:03.747Z,98045.25
2022-12-31T01:30:12.897Z,98020.16
2022-12-31T01:33:19.814Z,98041.75
2022-12-31T01:36:29.294Z,98068.91
2022-12-31T01:39:36.180Z,98050.72
2022-12-31T01:42:44.849Z,98061.09
2022-12-31T01:45:57.388Z,98068.31
2022-12-31T01:49:13.845Z,98065.66
2022-12-31T01:52:30.219Z,98065.78
2022-12-31T01:55:45.431Z,98045.28
2022-12-31T01:58:59.807Z,98066.25
2022-12-31T02:02:06.904Z,98073.03
2022-12-31T02:05:26.221Z,98078.31
2022-12-31T02:08:35.760Z,98059.69
2022-12-31T02:11:47.305Z,98059.97
2022-12-31T02:14:59.108Z,98070.44
2022-12-31T02:18:19.433Z,98062.09
2022-12-31T02:21:53.836Z,98064.97
2022-12-31T02:25:52.162Z,98054.00
2022-12-31T02:29:38.418Z,98051.81
2022-12-31T02:33:08.897Z,98034.91
2022-12-31T02:36:23.710Z,98029.94
2022-12-31T02:39:33.204Z,98032.69
2022-12-31T02:42:40.031Z,98019.91
2022-12-31T02:45:53.722Z,98031.44
2022-12-31T02:49:24.259Z,98003.38
2022-12-31T02:52:51.043Z,98011.66
2022-12-31T02:56:12.102Z,98002.78
2022-12-31T02:59:41.872Z,97974.50
2022-12-31T03:02:53.273Z,97989.22
2022-12-31T03:06:06.778Z,98009.28
2022-12-31T03:09:16.610Z,98028.00
2022-12-31T03:12:41.193Z,98022.75
2022-12-31T03:15:48.249Z,98048.69
2022-12-31T03:19:06.570Z,98053.34
2022-12-31T03:22:31.981Z,98047.28
2022-12-31T03:25:38.686Z,98041.97
2022-12-31T03:28:48.157Z,98037.66
2022-12-31T03:31:54.482Z,98050.97
2022-12-31T03:35:01.581Z,98057.69
2022-12-31T03:38:11.692Z,98075.34
2022-12-31T03:41:18.621Z,98086.44
2022-12-31T03:44:24.998Z,98061.75
2022-12-31T03:47:32.435Z,98060.50
2022-12-31T03:50:39.170Z,98043.13
2022-12-31T03:53:48.737Z,98074.09
2022-12-31T03:56:59.887Z,98081.63
2022-12-31T04:00:10.983Z,98076.97
2022-12-31T04:03:17.139Z,98075.38
2022-12-31T04:06:24.160Z,98074.50
2022-12-31T04:09:32.838Z,98074.13
2022-12-31T04:12:40.251Z,98079.56
2022-12-31T04:15:46.403Z,98080.69
2022-12-31T04:18:53.491Z,98080.16
2022-12-31T04:21:59.578Z,98081.81
2022-12-31T04:25:13.177Z,98073.75
2022-12-31T04:28:19.347Z,98078.75
2022-12-31T04:31:26.382Z,98078.88
2022-12-31T04:34:32.968Z,98079.84
2022-12-31T04:37:40.335Z,98081.22
2022-12-31T04:41:01.583Z,98086.50
2022-12-31T04:44:08.629Z,98093.59
2022-12-31T04:47:18.772Z,98109.53
2022-12-31T04:50:30.281Z,98116.03
2022-12-31T04:53:36.518Z,98109.47
2022-12-31T04:56:46.143Z,98119.34
2022-12-31T04:59:52.237Z,98124.13
2022-12-31T05:02:59.195Z,98133.81
2022-12-31T05:06:08.510Z,98119.59
2022-12-31T05:09:15.456Z,98123.75
2022-12-31T05:12:24.279Z,98117.03
2022-12-31T05:15:31.240Z,98117.41
2022-12-31T05:18:37.822Z,98118.94
2022-12-31T05:22:04.787Z,98109.06
2022-12-31T05:25:12.462Z,98107.00
2022-12-31T05:28:22.640Z,98108.06
2022-12-31T05:31:28.946Z,98106.31
2022-12-31T05:34:35.882Z,98105.06
2022-12-31T05:37:42.385Z,98105.56
2022-12-31T05:40:49.404Z,98106.81
2022-12-31T05:43:58.120Z,98105.66
2022-12-31T05:47:05.111Z,98104.69
2022-12-31T05:50:12.950Z,98118.66
2022-12-31T05:53:19.967Z,98120.38
2022-12-31T05:56:26.067Z,98128.69
2022-12-31T05:59:36.093Z,98122.13
2022-12-31T06:02:42.313Z,98121.19
2022-12-31T06:05:49.463Z,98130.47
2022-12-31T06:08:55.977Z,98133.34
2022-12-31T06:12:02.982Z,98143.97
2022-12-31T06:15:13.421Z,98137.31
2022-12-31T06:18:20.414Z,98140.53
2022-12-31T06:21:26.952Z,98130.06
2022-12-31T06:24:33.854Z,98139.06
2022-12-31T06:27:39.958Z,98126.19
2022-12-31T06:30:49.748Z,98134.44
2022-12-31T06:33:57.426Z,98124.78
2022-12-31T06:37:04.314Z,98127.91
2022-12-31T06:40:12.780Z,98130.75
2022-12-31T06:43:19.964Z,98130.94
2022-12-31T06:46:28.707Z,98130.75
2022-12-31T06:49:35.623Z,98135.59
2022-12-31T06:52:41.788Z,98139.78
2022-12-31T06:55:52.079Z,98139.69
2022-12-31T06:58:59.538Z,98141.16
2022-12-31T07:02:49.999Z,98150.41
2022-12-31T07:06:09.053Z,98164.47
2022-12-31T07:09:29.499Z,98166.22
2022-12-31T07:13:10.404Z,98145.88
2022-12-31T07:16:43.022Z,98165.25
2022-12-31T07:20:05.957Z,98176.81
2022-12-31T07:23:14.039Z,98178.91
2022-12-31T07:26:48.689Z,98182.88
2022-12-31T07:30:12.679Z,98180.38
2022-12-31T07:33:53.722Z,98171.97
2022-12-31T07:37:16.426Z,98167.66
2022-12-31T07:40:37.519Z,98164.84
2022-12-31T07:44:04.155Z,98179.28
2022-12-31T07:47:24.685Z,98179.28
2022-12-31T07:50:33.011Z,98183.47
2022-12-31T07:53:42.263Z,98182.69
2022-12-31T07:56:52.528Z,98161.84
2022-12-31T08:00:10.911Z,98187.78
2022-12-31T08:03:50.890Z,98193.16
2022-12-31T08:07:14.688Z,98192.97
2022-12-31T08:10:40.590Z,98188.31
2022-12-31T08:13:48.400Z,98197.31
2022-12-31T08:16:57.275Z,98187.00
2022-12-31T08:20:04.570Z,98189.06
2022-12-31T08:23:31.607Z,98185.59
2022-12-31T08:26:56.886Z,98161.75
2022-12-31T08:30:12.087Z,98179.19
2022-12-31T08:33:32.124Z,98173.38
2022-12-31T08:36:56.506Z,98190.31
2022-12-31T08:40:27.232Z,98183.38
2022-12-31T08:43:57.540Z,98196.31
2022-12-31T08:47:20.519Z,98194.28
2022-12-31T08:50:28.744Z,98187.19
2022-12-31T08:53:36.165Z,98205.06
2022-12-31T08:56:56.672Z,98207.84
2022-12-31T09:00:14.699Z,98206.47
2022-12-31T09:03:46.206Z,98220.69
2022-12-31T09:07:03.436Z,98205.69
2022-12-31T09:10:25.573Z,98194.50
2022-12-31T09:14:00.462Z,98199.97
2022-12-31T09:17:42.210Z,98200.22
2022-12-31T09:20:49.595Z,98185.66
2022-12-31T09:23:57.834Z,98185.69
2022-12-31T09:27:25.428Z,98184.66
2022-12-31T09:30:48.663Z,98182.31
2022-12-31T09:34:09.889Z,98192.19
2022-12-31T09:37:25.188Z,98204.34
2022-12-31T09:41:15.858Z,98201.09
2022-12-31T09:45:37.195Z,98207.09
2022-12-31T09:49:49.319Z,98199.78
2022-12-31T09:53:48.738Z,98203.59
2022-12-31T09:57:47.670Z,98202.09
2022-12-31T10:01:04.447Z,98199.69
2022-12-31T10:04:55.062Z,98177.34
2022-12-31T10:08:25.017Z,98180.69
2022-12-31T10:12:05.838Z,98171.41
2022-12-31T10:15:51.754Z,98171.06
2022-12-31T10:19:56.361Z,98165.38
2022-12-31T10:23:35.580Z,98167.09
2022-12-31T10:27:04.180Z,98173.66
2022-12-31T10:30:20.977Z,98183.66
2022-12-31T10:33:47.892Z,98195.97
2022-12-31T10:37:13.988Z,98189.78
2022-12-31T10:40:48.146Z,98186.75
2022-12-31T10:44:42.432Z,98196.78
2022-12-31T10:48:35.671Z,98206.81
2022-12-31T10:52:30.569Z,98212.56
2022-12-31T10:56:33.310Z,98215.78
2022-12-31T11:00:17.204Z,98219.19
2022-12-31T11:04:10.655Z,98213.28
2022-12-31T11:07:58.015Z,98215.03
2022-12-31T11:11:34.832Z,98202.78
2022-12-31T11:15:18.800Z,98193.22
2022-12-31T11:18:43.748Z,98181.94
2022-12-31T11:22:25.426Z,98181.78
2022-12-31T11:26:05.057Z,98184.38
2022-12-31T11:29:42.393Z,98187.47
2022-12-31T11:33:20.209Z,98178.81
2022-12-31T11:36:47.738Z,98191.91
2022-12-31T11:40:18.358Z,98177.66
2022-12-31T11:43:38.560Z,98178.94
2022-12-31T11:47:06.827Z,98165.47
2022-12-31T11:50:39.106Z,98167.41
2022-12-31T11:54:27.270Z,98174.84
2022-12-31T11:57:39.339Z,98182.47
2022-12-31T12:00:59.323Z,98187.78
2022-12-31T12:04:07.654Z,98185.75
2022-12-31T12:07:18.683Z,98176.53
2022-12-31T12:10:36.201Z,98173.91
2022-12-31T12:13:42.756Z,98170.66
2022-12-31T12:17:04.419Z,98180.28
2022-12-31T12:20:24.511Z,98165.81
2022-12-31T12:23:33.080Z,98159.94
2022-12-31T12:26:42.278Z,98158.47
2022-12-31T12:29:49.475Z,98156.72
2022-12-31T12:33:04.978Z,98152.59
2022-12-31T12:36:15.658Z,98157.56
2022-12-31T12:39:28.259Z,98155.97
2022-12-31T12:42:36.054Z,98160.75
2022-12-31T12:45:52.372Z,98165.81
2022-12-31T12:49:04.433Z,98157.56
2022-12-31T12:52:57.709Z,98156.28
2022-12-31T12:56:27.765Z,98164.28
2022-12-31T13:00:09.575Z,98154.59
2022-12-31T13:08:06.219Z,98146.66
2022-12-31T13:11:34.376Z,98147.47
2022-12-31T13:14:54.680Z,98148.19
2022-12-31T13:18:22.297Z,98146.06
2022-12-31T13:21:48.380Z,98133.84
2022-12-31T13:25:10.483Z,98162.72
2022-12-31T13:28:22.936Z,98172.56
2022-12-31T13:31:39.384Z,98165.47
2022-12-31T13:34:51.139Z,98157.03
2022-12-31T13:38:08.489Z,98165.09
2022-12-31T13:41:27.330Z,98156.94
2022-12-31T13:44:44.981Z,98146.91
2022-12-31T13:48:01.685Z,98169.44
2022-12-31T13:51:21.178Z,98169.22
2022-12-31T13:54:44.715Z,98172.91
2022-12-31T13:58:06.086Z,98173.38
2022-12-31T14:01:23.429Z,98176.63
2022-12-31T14:04:42.342Z,98171.66
2022-12-31T14:07:57.841Z,98183.59
2022-12-31T14:11:23.842Z,98184.13
2022-12-31T14:14:46.184Z,98183.31
2022-12-31T14:18:08.981Z,98192.50
2022-12-31T14:21:26.468Z,98197.25
2022-12-31T14:24:48.341Z,98207.00
2022-12-31T14:27:59.669Z,98207.34
2022-12-31T14:31:26.619Z,98207.63
2022-12-31T14:34:49.929Z,98207.72
2022-12-31T14:38:10.514Z,98213.31
2022-12-31T14:41:46.492Z,98202.28
2022-12-31T14:45:18.599Z,98205.03
2022-12-31T14:48:50.229Z,98210.81
2022-12-31T14:51:58.988Z,98204.84
2022-12-31T14:55:27.512Z,98212.19
2022-12-31T14:58:39.055Z,98211.66
2022-12-31T15:01:48.842Z,98207.19
2022-12-31T15:05:19.329Z,98203.25
2022-12-31T15:08:52.759Z,98206.72
2022-12-31T15:12:27.052Z,98208.72
2022-12-31T15:15:56.603Z,98215.72
2022-12-31T15:20:00.448Z,98211.28
2022-12-31T15:23:24.290Z,98215.50
2022-12-31T15:26:35.366Z,98216.97
2022-12-31T15:29:49.189Z,98212.28
2022-12-31T15:33:04.050Z,98219.28
2022-12-31T15:36:20.980Z,98230.09
2022-12-31T15:39:46.241Z,98227.50
2022-12-31T15:43:03.012Z,98234.16
2022-12-31T15:46:20.479Z,98236.03
2022-12-31T15:49:29.495Z,98233.06
2022-12-31T15:52:48.138Z,98246.91
2022-12-31T15:56:02.774Z,98238.75
2022-12-31T15:59:18.899Z,98238.63
2022-12-31T16:02:29.735Z,98236.03
2022-12-31T16:05:38.988Z,98231.34
2022-12-31T16:08:52.801Z,98237.28
2022-12-31T16:12:12.932Z,98238.88
2022-12-31T16:15:30.794Z,98242.09
2022-12-31T16:18:43.130Z,98240.91
2022-12-31T16:21:50.271Z,98250.75
2022-12-31T16:25:29.719Z,98246.72
2022-12-31T16:28:35.735Z,98250.75
2022-12-31T16:31:45.872Z,98250.28
2022-12-31T16:34:55.033Z,98257.44
2022-12-31T16:38:18.162Z,98262.41
2022-12-31T16:41:25.369Z,98256.53
2022-12-31T16:44:35.063Z,98255.28
2022-12-31T16:47:41.658Z,98263.25
2022-12-31T16:50:52.644Z,98269.41
2022-12-31T16:54:01.122Z,98270.06
2022-12-31T16:57:13.308Z,98278.69
2022-12-31T17:00:27.854Z,98255.81
2022-12-31T17:03:49.721Z,98279.47
2022-12-31T17:06:56.279Z,98271.06
2022-12-31T17:10:16.374Z,98286.28
2022-12-31T17:13:37.172Z,98281.94
2022-12-31T17:17:03.158Z,98279.81
2022-12-31T17:20:22.545Z,98280.25
2022-12-31T17:23:37.333Z,98269.03
2022-12-31T17:26:43.895Z,98274.75
2022-12-31T17:29:51.176Z,98279.59
2022-12-31T17:33:03.776Z,98271.13
2022-12-31T17:36:25.283Z,98270.78
2022-12-31T17:39:47.080Z,98274.75
2022-12-31T17:42:54.069Z,98267.41
2022-12-31T17:46:00.247Z,98277.34
2022-12-31T17:49:16.351Z,98287.75
2022-12-31T17:52:22.392Z,98293.47
2022-12-31T17:55:32.335Z,98276.94
2022-12-31T17:58:49.259Z,98289.34
2022-12-31T18:01:56.406Z,98281.06
2022-12-31T18:05:05.474Z,98295.69
2022-12-31T18:08:12.482Z,98294.97
2022-12-31T18:11:23.296Z,98282.66
2022-12-31T18:14:30.435Z,98282.16
2022-12-31T18:17:37.567Z,98279.50
2022-12-31T18:20:47.745Z,98292.84
2022-12-31T18:26:59.818Z,98285.97
2022-12-31T18:30:07.043Z,98298.28
2022-12-31T18:33:22.424Z,98297.63
2022-12-31T18:36:32.549Z,98301.69
2022-12-31T18:39:39.540Z,98297.63
2022-12-31T18:42:46.706Z,98301.69
2022-12-31T18:45:55.343Z,98293.13
2022-12-31T18:49:01.731Z,98301.19
2022-12-31T18:52:17.329Z,98297.53
2022-12-31T18:55:33.243Z,98297.34
2022-12-31T18:58:40.284Z,98296.69
2022-12-31T19:01:46.481Z,98295.69
2022-12-31T19:04:53.509Z,98306.44
2022-12-31T19:08:02.726Z,98307.31
2022-12-31T19:11:09.697Z,98308.50
2022-12-31T19:14:21.927Z,98307.84
2022-12-31T19:17:31.131Z,98306.44
2022-12-31T19:20:37.722Z,98294.88
2022-12-31T19:23:47.752Z,98306.84
2022-12-31T19:26:54.460Z,98302.16
2022-12-31T19:30:01.658Z,98303.53
2022-12-31T19:33:07.938Z,98317.16
2022-12-31T19:36:20.057Z,98311.44
2022-12-31T19:39:28.821Z,98311.06
2022-12-31T19:42:35.777Z,98301.84
2022-12-31T19:45:44.284Z,98313.09
2022-12-31T19:48:51.580Z,98322.66
2022-12-31T19:51:57.785Z,98327.09
2022-12-31T19:55:08.189Z,98336.06
2022-12-31T19:58:21.825Z,98340.50
2022-12-31T20:01:29.023Z,98328.25
2022-12-31T20:04:35.631Z,98338.25
2022-12-31T20:07:43.138Z,98332.94
2022-12-31T20:10:51.833Z,98334.66
2022-12-31T20:13:58.800Z,98323.69
2022-12-31T20:17:05.192Z,98324.59
2022-12-31T20:20:13.574Z,98315.72
2022-12-31T20:23:20.598Z,98323.25
2022-12-31T20:26:30.251Z,98315.97
2022-12-31T20:29:36.735Z,98322.28
2022-12-31T20:32:43.665Z,98326.44
2022-12-31T20:35:50.041Z,98310.16
2022-12-31T20:38:57.092Z,98311.16
2022-12-31T20:42:05.933Z,98311.88
2022-12-31T20:45:14.650Z,98313.53
2022-12-31T20:48:20.836Z,98313.06
2022-12-31T20:51:30.599Z,98311.72
2022-12-31T20:54:37.513Z,98314.59
2022-12-31T20:57:47.523Z,98303.09
2022-12-31T21:00:56.193Z,98304.25
2022-12-31T21:04:06.696Z,98298.69
2022-12-31T21:07:13.309Z,98301.34
2022-12-31T21:10:20.459Z,98289.72
2022-12-31T21:13:29.303Z,98287.94
2022-12-31T21:16:36.894Z,98300.09
2022-12-31T21:19:43.125Z,98308.09
2022-12-31T21:22:49.982Z,98311.09
2022-12-31T21:25:56.049Z,98300.28
2022-12-31T21:29:05.972Z,98304.09
2022-12-31T21:32:12.091Z,98306.59
2022-12-31T21:38:45.975Z,98299.63
2022-12-31T21:41:56.038Z,98304.66
2022-12-31T21:45:05.863Z,98308.94
2022-12-31T21:48:25.215Z,98312.63
2022-12-31T21:51:32.639Z,98317.44
2022-12-31T21:54:51.840Z,98317.31
2022-12-31T21:58:28.083Z,98310.81
2022-12-31T22:01:39.940Z,98326.25
2022-12-31T22:05:03.074Z,98302.66
2022-12-31T22:08:11.203Z,98324.91
2022-12-31T22:11:20.212Z,98317.28
2022-12-31T22:14:27.148Z,98326.56
2022-12-31T22:17:36.668Z,98327.59
2022-12-31T22:20:44.233Z,98328.25
2022-12-31T22:23:56.145Z,98333.72
2022-12-31T22:27:29.579Z,98334.75
2022-12-31T22:30:31.233Z,98326.25
2022-12-31T22:33:41.029Z,98324.88
2022-12-31T22:36:47.379Z,98326.72
2022-12-31T22:39:56.066Z,98300.66
2022-12-31T22:43:02.955Z,98325.53
2022-12-31T22:46:14.543Z,98327.53
2022-12-31T22:49:23.999Z,98325.84
2022-12-31T22:52:31.144Z,98330.47
2022-12-31T22:55:37.242Z,98333.59
2022-12-31T22:58:44.720Z,98314.84
2022-12-31T23:01:50.963Z,98330.44
2022-12-31T23:05:15.278Z,98325.81
2022-12-31T23:08:27.768Z,98330.16
2022-12-31T23:11:46.212Z,98329.84
2022-12-31T23:15:04.704Z,98341.50
2022-12-31T23:18:24.254Z,98346.00
2022-12-31T23:21:45.500Z,98345.50
2022-12-31T23:24:52.503Z,98339.25
2022-12-31T23:27:58.633Z,98331.88
2022-12-31T23:31:09.669Z,98332.78
2022-12-31T23:34:15.791Z,98327.69
2022-12-31T23:37:25.447Z,98328.94
2022-12-31T23:40:34.541Z,98347.22
2022-12-31T23:43:41.623Z,98343.88
2022-12-31T23:46:47.835Z,98345.75
2022-12-31T23:49:54.928Z,98355.28
2022-12-31T23:53:03.740Z,98345.78
2022-12-31T23:56:23.045Z,98353.69
2022-12-31T23:59:29.950Z,98369.66
